createdAt,value
2024-05-09T00:00:39.077Z,8.50
2024-05-09T00:03:08.040Z,8.50
2024-05-09T00:05:35.983Z,8.40
2024-05-09T00:08:03.477Z,8.40
2024-05-09T00:10:36.284Z,8.40
2024-05-09T00:13:09.488Z,8.30
2024-05-09T00:15:37.106Z,8.30
2024-05-09T00:18:05.764Z,8.20
2024-05-09T00:20:38.393Z,8.20
2024-05-09T00:23:08.766Z,8.20
2024-05-09T00:25:36.279Z,8.10
2024-05-09T00:28:03.399Z,8.10
2024-05-09T00:30:34.906Z,8.00
2024-05-09T00:33:08.283Z,8.00
2024-05-09T00:35:36.711Z,8.00
2024-05-09T00:38:04.072Z,7.90
2024-05-09T00:40:43.358Z,7.90
2024-05-09T00:43:12.424Z,7.80
2024-05-09T00:45:40.350Z,7.80
2024-05-09T00:48:09.085Z,7.70
2024-05-09T00:50:42.184Z,7.70
2024-05-09T00:53:14.616Z,7.70
2024-05-09T00:55:42.414Z,7.60
2024-05-09T00:58:11.879Z,7.60
2024-05-09T01:00:40.967Z,7.50
2024-05-09T01:03:11.116Z,7.50
2024-05-09T01:05:40.246Z,7.40
2024-05-09T01:08:09.661Z,7.40
2024-05-09T01:10:37.672Z,7.30
2024-05-09T01:13:05.705Z,7.30
2024-05-09T01:15:34.029Z,7.30
2024-05-09T01:18:03.994Z,7.30
2024-05-09T01:20:40.142Z,7.30
2024-05-09T01:23:10.402Z,7.20
2024-05-09T01:25:37.635Z,7.20
2024-05-09T01:28:05.155Z,7.10
2024-05-09T01:30:35.462Z,7.10
2024-05-09T01:33:06.829Z,7.10
2024-05-09T01:35:35.491Z,7.10
2024-05-09T01:38:02.518Z,7.00
2024-05-09T01:40:37.087Z,7.00
2024-05-09T01:43:10.893Z,7.00
2024-05-09T01:45:42.098Z,6.90
2024-05-09T01:48:09.770Z,6.90
2024-05-09T01:50:40.878Z,6.80
2024-05-09T01:53:14.250Z,6.80
2024-05-09T01:55:41.752Z,6.80
2024-05-09T01:58:09.217Z,6.70
2024-05-09T02:00:40.483Z,6.70
2024-05-09T02:03:12.282Z,6.70
2024-05-09T02:05:42.767Z,6.60
2024-05-09T02:08:14.755Z,6.60
2024-05-09T02:10:41.783Z,6.60
2024-05-09T02:13:08.676Z,6.60
2024-05-09T02:15:35.635Z,6.50
2024-05-09T02:18:02.590Z,6.50
2024-05-09T02:20:35.895Z,6.40
2024-05-09T02:23:05.830Z,6.40
2024-05-09T02:25:33.020Z,6.30
2024-05-09T02:27:59.920Z,6.30
2024-05-09T02:30:36.576Z,6.30
2024-05-09T02:33:08.403Z,6.20
2024-05-09T02:35:36.027Z,6.20
2024-05-09T02:38:03.188Z,6.20
2024-05-09T02:40:36.654Z,6.10
2024-05-09T02:43:06.790Z,6.10
2024-05-09T02:45:33.856Z,6.00
2024-05-09T02:48:01.477Z,6.00
2024-05-09T02:50:36.925Z,6.00
2024-05-09T02:53:07.428Z,6.00
2024-05-09T02:55:34.447Z,5.90
2024-05-09T02:58:01.377Z,5.90
2024-05-09T03:00:36.768Z,5.80
2024-05-09T03:03:08.738Z,5.80
2024-05-09T03:05:37.331Z,5.70
2024-05-09T03:08:04.626Z,5.70
2024-05-09T03:10:36.126Z,5.70
2024-05-09T03:13:13.902Z,5.60
2024-05-09T03:15:42.403Z,5.60
2024-05-09T03:18:09.585Z,5.60
2024-05-09T03:20:37.768Z,5.50
2024-05-09T03:23:06.396Z,5.50
2024-05-09T03:25:33.739Z,5.50
2024-05-09T03:28:00.724Z,5.50
2024-05-09T03:30:38.617Z,5.50
2024-05-09T03:33:13.562Z,5.40
2024-05-09T03:35:41.669Z,5.40
2024-05-09T03:38:08.661Z,5.40
2024-05-09T03:40:35.560Z,5.40
2024-05-09T03:43:02.347Z,5.30
2024-05-09T03:45:29.187Z,5.30
2024-05-09T03:47:56.210Z,5.30
2024-05-09T03:50:30.053Z,5.30
2024-05-09T03:53:01.994Z,5.30
2024-05-09T03:55:28.950Z,5.30
2024-05-09T03:57:55.732Z,5.30
2024-05-09T04:00:31.027Z,5.30
2024-05-09T04:03:06.093Z,5.30
2024-05-09T04:05:34.970Z,5.30
2024-05-09T04:08:02.114Z,5.30
2024-05-09T04:10:33.447Z,5.30
2024-05-09T04:13:02.023Z,5.30
2024-05-09T04:15:29.062Z,5.30
2024-05-09T04:17:56.286Z,5.40
2024-05-09T04:20:33.952Z,5.40
2024-05-09T04:23:06.950Z,5.40
2024-05-09T04:25:34.409Z,5.40
2024-05-09T04:28:01.231Z,5.50
2024-05-09T04:30:37.116Z,5.50
2024-05-09T04:33:09.260Z,5.60
2024-05-09T04:35:38.582Z,5.60
2024-05-09T04:38:06.182Z,5.70
2024-05-09T04:40:36.037Z,5.70
2024-05-09T04:43:05.290Z,5.80
2024-05-09T04:45:32.239Z,5.90
2024-05-09T04:47:59.297Z,5.90
2024-05-09T04:50:35.398Z,6.00
2024-05-09T04:53:06.235Z,6.10
2024-05-09T04:55:36.216Z,6.20
2024-05-09T04:58:03.269Z,6.30
2024-05-09T05:00:36.032Z,6.40
2024-05-09T05:03:08.876Z,6.60
2024-05-09T05:05:41.745Z,6.70
2024-05-09T05:08:13.607Z,6.80
2024-05-09T05:10:41.313Z,6.90
2024-05-09T05:13:19.968Z,7.00
2024-05-09T05:15:57.287Z,7.10
2024-05-09T05:18:26.416Z,7.30
2024-05-09T05:20:55.308Z,7.40
2024-05-09T05:23:23.122Z,7.50
2024-05-09T05:25:52.499Z,7.70
2024-05-09T05:28:20.014Z,7.90
2024-05-09T05:30:46.885Z,8.00
2024-05-09T05:33:15.587Z,8.20
2024-05-09T05:35:42.783Z,8.40
2024-05-09T05:38:10.788Z,8.60
2024-05-09T05:40:38.938Z,8.70
2024-05-09T05:43:09.110Z,9.00
2024-05-09T05:45:36.516Z,9.20
2024-05-09T05:48:05.481Z,9.40
2024-05-09T05:50:36.499Z,9.60
2024-05-09T05:53:09.039Z,9.80
2024-05-09T05:55:37.407Z,10.00
2024-05-09T05:58:04.392Z,10.20
2024-05-09T06:00:38.361Z,10.50
2024-05-09T06:03:07.775Z,10.60
2024-05-09T06:05:36.594Z,10.80
2024-05-09T06:08:03.587Z,11.00
2024-05-09T06:10:37.707Z,11.20
2024-05-09T06:13:07.526Z,11.40
2024-05-09T06:15:34.414Z,11.60
2024-05-09T06:18:01.692Z,11.80
2024-05-09T06:20:35.603Z,12.00
2024-05-09T06:23:08.282Z,12.20
2024-05-09T06:25:36.035Z,12.40
2024-05-09T06:28:03.249Z,12.60
2024-05-09T06:30:37.572Z,12.80
2024-05-09T06:33:08.978Z,13.00
2024-05-09T06:35:36.839Z,13.20
2024-05-09T06:38:04.487Z,13.40
2024-05-09T06:40:37.464Z,13.50
2024-05-09T06:43:13.558Z,13.70
2024-05-09T06:45:40.772Z,13.80
2024-05-09T06:48:09.475Z,14.10
2024-05-09T06:50:38.527Z,14.20
2024-05-09T06:53:07.190Z,14.40
2024-05-09T06:55:34.206Z,14.60
2024-05-09T06:58:00.991Z,14.90
2024-05-09T07:00:35.590Z,15.00
2024-05-09T07:03:15.387Z,15.20
2024-05-09T07:05:45.802Z,15.40
2024-05-09T07:08:13.440Z,15.60
2024-05-09T07:10:40.405Z,15.80
2024-05-09T07:13:13.785Z,16.00
2024-05-09T07:15:41.500Z,16.20
2024-05-09T07:18:17.690Z,16.40
2024-05-09T07:20:46.322Z,16.60
2024-05-09T07:23:13.479Z,16.80
2024-05-09T07:25:41.257Z,16.90
2024-05-09T07:28:15.766Z,17.20
2024-05-09T07:30:43.424Z,17.40
2024-05-09T07:33:16.241Z,17.60
2024-05-09T07:35:43.285Z,17.80
2024-05-09T07:38:10.193Z,18.00
2024-05-09T07:40:38.476Z,18.20
2024-05-09T07:43:06.922Z,18.40
2024-05-09T07:52:32.489Z,18.80
2024-05-09T07:55:55.434Z,19.10
2024-05-09T07:58:27.000Z,19.30
2024-05-09T08:00:54.354Z,19.40
2024-05-09T08:03:21.410Z,19.60
2024-05-09T08:05:48.224Z,19.70
2024-05-09T08:08:15.036Z,19.90
2024-05-09T08:10:41.957Z,20.00
2024-05-09T08:13:08.891Z,20.20
2024-05-09T08:15:37.742Z,20.40
2024-05-09T08:18:11.241Z,20.60
2024-05-09T08:20:38.950Z,20.70
2024-05-09T08:23:05.987Z,20.90
2024-05-09T08:25:32.806Z,21.00
2024-05-09T08:27:59.722Z,21.20
2024-05-09T08:30:33.422Z,21.30
2024-05-09T08:33:04.507Z,21.50
2024-05-09T08:35:32.052Z,21.60
2024-05-09T08:37:59.260Z,21.70
2024-05-09T08:40:33.503Z,21.80
2024-05-09T08:43:06.680Z,21.90
2024-05-09T08:45:35.496Z,22.10
2024-05-09T08:48:07.600Z,22.20
2024-05-09T08:50:39.142Z,22.40
2024-05-09T08:53:08.476Z,22.40
2024-05-09T08:55:40.085Z,22.40
2024-05-09T08:58:13.500Z,22.50
2024-05-09T09:00:42.924Z,22.60
2024-05-09T09:03:14.828Z,22.70
2024-05-09T09:05:46.841Z,22.90
2024-05-09T09:08:14.551Z,23.00
2024-05-09T09:10:43.432Z,23.00
2024-05-09T09:13:11.211Z,23.10
2024-05-09T09:15:48.555Z,23.30
2024-05-09T09:18:16.408Z,23.40
2024-05-09T09:20:44.497Z,23.50
2024-05-09T09:23:11.363Z,23.60
2024-05-09T09:25:42.031Z,23.60
2024-05-09T09:28:10.000Z,23.70
2024-05-09T09:30:40.840Z,23.80
2024-05-09T09:33:11.291Z,23.80
2024-05-09T09:35:40.480Z,23.90
2024-05-09T09:38:09.945Z,24.00
2024-05-09T09:40:43.176Z,24.10
2024-05-09T09:43:21.876Z,24.20
2024-05-09T09:45:51.434Z,24.20
2024-05-09T09:48:20.154Z,24.20
2024-05-09T09:50:48.663Z,24.30
2024-05-09T09:53:16.587Z,24.40
2024-05-09T09:55:44.173Z,24.50
2024-05-09T09:58:14.228Z,24.60
2024-05-09T10:00:42.157Z,24.60
2024-05-09T10:03:09.460Z,24.50
2024-05-09T10:05:37.245Z,24.50
2024-05-09T10:08:07.257Z,24.60
2024-05-09T10:10:35.891Z,24.70
2024-05-09T10:13:07.482Z,24.70
2024-05-09T10:15:47.083Z,24.80
2024-05-09T10:18:14.912Z,24.90
2024-05-09T10:20:46.033Z,25.00
2024-05-09T10:23:23.611Z,25.20
2024-05-09T10:25:57.659Z,25.30
2024-05-09T10:28:32.172Z,25.30
2024-05-09T10:31:09.991Z,25.20
2024-05-09T10:33:45.280Z,25.00
2024-05-09T10:36:19.819Z,24.80
2024-05-09T10:38:48.157Z,24.60
2024-05-09T10:41:16.838Z,24.60
2024-05-09T10:43:44.399Z,24.60
2024-05-09T10:46:12.505Z,24.70
2024-05-09T10:48:42.026Z,24.80
2024-05-09T10:51:09.188Z,24.90
2024-05-09T10:53:43.471Z,25.00
2024-05-09T10:56:11.303Z,25.00
2024-05-09T10:58:38.100Z,25.10
2024-05-09T11:01:07.141Z,25.00
2024-05-09T11:03:34.878Z,24.90
2024-05-09T11:06:02.539Z,24.90
2024-05-09T11:08:31.810Z,24.80
2024-05-09T11:11:03.000Z,24.70
2024-05-09T11:13:31.039Z,24.60
2024-05-09T11:16:02.002Z,24.70
2024-05-09T11:18:35.129Z,24.80
2024-05-09T11:21:12.592Z,24.90
2024-05-09T11:23:39.808Z,25.00
2024-05-09T11:26:07.156Z,25.00
2024-05-09T11:28:34.006Z,25.00
2024-05-09T11:31:08.903Z,24.90
2024-05-09T11:33:40.995Z,24.90
2024-05-09T11:36:09.204Z,25.00
2024-05-09T11:38:36.083Z,25.00
2024-05-09T11:41:03.734Z,25.00
2024-05-09T11:43:30.847Z,25.10
2024-05-09T11:45:58.347Z,25.20
2024-05-09T11:48:26.199Z,25.30
2024-05-09T11:50:54.510Z,25.50
2024-05-09T11:53:21.391Z,25.60
2024-05-09T11:55:48.201Z,25.80
2024-05-09T11:58:17.504Z,25.90
2024-05-09T12:00:45.252Z,26.00
2024-05-09T12:03:12.318Z,26.10
2024-05-09T12:05:39.309Z,26.30
2024-05-09T12:08:07.079Z,26.40
2024-05-09T12:10:35.974Z,26.40
2024-05-09T12:13:05.827Z,26.50
2024-05-09T12:15:36.386Z,26.70
2024-05-09T12:18:04.710Z,26.70
2024-05-09T12:20:37.464Z,26.90
2024-05-09T12:23:09.605Z,26.80
2024-05-09T12:25:38.925Z,26.90
2024-05-09T12:28:06.955Z,27.00
2024-05-09T12:30:38.594Z,26.90
2024-05-09T12:33:14.012Z,26.90
2024-05-09T12:35:44.185Z,26.90
2024-05-09T12:38:14.205Z,27.10
2024-05-09T12:40:42.459Z,27.20
2024-05-09T12:43:10.845Z,27.20
2024-05-09T12:45:38.987Z,27.20
2024-05-09T12:48:08.417Z,27.10
2024-05-09T12:50:36.339Z,26.90
2024-05-09T12:53:04.545Z,26.80
2024-05-09T12:55:43.861Z,26.80
2024-05-09T12:58:19.666Z,27.00
2024-05-09T13:00:47.514Z,27.20
2024-05-09T13:03:15.318Z,27.40
2024-05-09T13:05:46.872Z,27.60
2024-05-09T13:08:14.659Z,27.80
2024-05-09T13:10:44.032Z,27.90
2024-05-09T13:13:12.766Z,28.10
2024-05-09T13:15:40.515Z,28.20
2024-05-09T13:18:10.585Z,28.30
2024-05-09T13:20:39.165Z,28.40
2024-05-09T13:23:08.535Z,28.40
2024-05-09T13:25:39.245Z,28.50
2024-05-09T13:28:09.359Z,28.60
2024-05-09T13:30:40.936Z,28.70
2024-05-09T13:33:12.047Z,28.80
2024-05-09T13:35:47.302Z,28.90
2024-05-09T13:38:21.366Z,28.90
2024-05-09T13:40:50.174Z,29.00
2024-05-09T13:43:23.101Z,29.10
2024-05-09T13:45:50.666Z,29.10
2024-05-09T13:48:20.758Z,29.10
2024-05-09T13:50:48.487Z,29.10
2024-05-09T13:53:20.010Z,28.80
2024-05-09T13:55:47.692Z,28.80
2024-05-09T13:58:18.444Z,28.90
2024-05-09T14:00:49.033Z,28.90
2024-05-09T14:03:20.280Z,28.90
2024-05-09T14:05:52.471Z,29.00
2024-05-09T14:08:23.880Z,29.10
2024-05-09T14:10:51.204Z,29.20
2024-05-09T14:13:19.243Z,29.30
2024-05-09T14:15:46.976Z,29.30
2024-05-09T14:18:14.592Z,29.40
2024-05-09T14:20:42.952Z,29.40
2024-05-09T14:23:09.965Z,29.60
2024-05-09T14:25:41.846Z,29.60
2024-05-09T14:28:10.776Z,29.70
2024-05-09T14:30:38.840Z,29.80
2024-05-09T14:33:07.256Z,29.80
2024-05-09T14:35:35.025Z,29.80
2024-05-09T14:38:02.697Z,29.90
2024-05-09T14:40:40.164Z,30.00
2024-05-09T14:43:11.531Z,30.10
2024-05-09T14:45:38.798Z,30.20
2024-05-09T14:48:07.113Z,30.30
2024-05-09T14:50:38.169Z,30.40
2024-05-09T14:53:07.994Z,30.40
2024-05-09T14:55:37.297Z,30.20
2024-05-09T14:58:09.342Z,30.10
2024-05-09T15:00:47.953Z,30.00
2024-05-09T15:03:18.920Z,29.90
2024-05-09T15:05:47.192Z,29.90
2024-05-09T15:08:14.099Z,29.80
2024-05-09T15:10:41.142Z,29.60
2024-05-09T15:13:09.834Z,29.40
2024-05-09T15:15:38.304Z,29.40
2024-05-09T15:18:06.064Z,29.40
2024-05-09T15:20:36.228Z,29.40
2024-05-09T15:23:05.374Z,29.30
2024-05-09T15:25:33.487Z,29.40
2024-05-09T15:28:00.488Z,29.50
2024-05-09T15:30:30.952Z,29.60
2024-05-09T15:33:01.161Z,29.70
2024-05-09T15:35:28.469Z,29.60
2024-05-09T15:37:55.773Z,29.50
2024-05-09T15:40:31.649Z,29.20
2024-05-09T15:43:06.176Z,29.00
2024-05-09T15:45:35.152Z,28.80
2024-05-09T15:48:03.128Z,28.60
2024-05-09T15:50:37.163Z,28.40
2024-05-09T15:53:08.413Z,28.10
2024-05-09T15:55:36.071Z,27.80
2024-05-09T15:58:04.301Z,27.50
2024-05-09T16:03:01.504Z,26.80
2024-05-09T16:05:28.801Z,26.50
2024-05-09T16:07:55.854Z,26.10
2024-05-09T16:10:26.202Z,25.80
2024-05-09T16:12:59.188Z,25.40
2024-05-09T16:15:26.392Z,25.20
2024-05-09T16:17:54.110Z,24.90
2024-05-09T16:20:33.421Z,24.70
2024-05-09T16:23:05.993Z,24.50
2024-05-09T16:25:32.795Z,24.30
2024-05-09T16:27:59.844Z,24.10
2024-05-09T16:30:33.914Z,23.90
2024-05-09T16:33:04.068Z,23.70
2024-05-09T16:35:31.894Z,23.50
2024-05-09T16:37:58.863Z,23.30
2024-05-09T16:40:34.503Z,23.10
2024-05-09T16:43:06.521Z,23.00
2024-05-09T16:45:33.822Z,22.90
2024-05-09T16:48:02.287Z,22.70
2024-05-09T16:50:33.938Z,22.40
2024-05-09T16:53:03.742Z,22.30
2024-05-09T16:55:30.864Z,22.10
2024-05-09T16:57:58.339Z,21.90
2024-05-09T17:00:35.835Z,21.80
2024-05-09T17:03:09.635Z,21.70
2024-05-09T17:05:37.220Z,21.50
2024-05-09T17:08:04.798Z,21.40
2024-05-09T17:10:34.117Z,21.30
2024-05-09T17:13:07.238Z,21.10
2024-05-09T17:15:36.245Z,21.10
2024-05-09T17:18:04.385Z,21.00
2024-05-09T17:20:34.752Z,20.90
2024-05-09T17:23:06.050Z,20.70
2024-05-09T17:25:33.762Z,20.70
2024-05-09T17:28:07.285Z,20.50
2024-05-09T17:30:37.770Z,20.40
2024-05-09T17:33:07.908Z,20.40
2024-05-09T17:35:36.298Z,20.20
2024-05-09T17:38:03.760Z,20.20
2024-05-09T17:40:34.521Z,20.10
2024-05-09T17:43:04.703Z,20.00
2024-05-09T17:45:32.422Z,19.90
2024-05-09T17:47:59.985Z,19.90
2024-05-09T17:50:34.700Z,19.80
2024-05-09T17:53:04.134Z,19.70
2024-05-09T17:55:31.116Z,19.60
2024-05-09T17:57:58.140Z,19.50
2024-05-09T18:00:36.309Z,19.40
2024-05-09T18:03:08.644Z,19.30
2024-05-09T18:05:37.032Z,19.20
2024-05-09T18:08:06.262Z,19.20
2024-05-09T18:10:37.279Z,19.10
2024-05-09T18:13:08.125Z,19.00
2024-05-09T18:15:35.871Z,18.90
2024-05-09T18:18:03.955Z,18.80
2024-05-09T18:20:40.860Z,18.70
2024-05-09T18:23:13.152Z,18.60
2024-05-09T18:25:40.299Z,18.50
2024-05-09T18:28:07.705Z,18.40
2024-05-09T18:30:36.617Z,18.40
2024-05-09T18:33:06.454Z,18.30
2024-05-09T18:35:34.754Z,18.10
2024-05-09T18:38:01.757Z,18.00
2024-05-09T18:40:34.294Z,17.90
2024-05-09T18:43:05.513Z,17.80
2024-05-09T18:45:33.854Z,17.70
2024-05-09T18:48:01.144Z,17.60
2024-05-09T18:50:34.619Z,17.50
2024-05-09T18:53:12.648Z,17.40
2024-05-09T18:55:41.421Z,17.30
2024-05-09T18:58:08.442Z,17.10
2024-05-09T19:00:38.500Z,17.10
2024-05-09T19:03:10.280Z,17.00
2024-05-09T19:05:40.489Z,16.80
2024-05-09T19:08:08.524Z,16.80
2024-05-09T19:10:38.377Z,16.70
2024-05-09T19:13:10.415Z,16.60
2024-05-09T19:15:40.388Z,16.50
2024-05-09T19:18:09.500Z,16.40
2024-05-09T19:20:37.358Z,16.30
2024-05-09T19:23:06.353Z,16.20
2024-05-09T19:25:34.267Z,16.10
2024-05-09T19:28:01.349Z,16.00
2024-05-09T19:30:37.260Z,15.90
2024-05-09T19:33:08.156Z,15.90
2024-05-09T19:35:35.353Z,15.80
2024-05-09T19:38:02.498Z,15.70
2024-05-09T19:40:32.241Z,15.50
2024-05-09T19:43:05.504Z,15.50
2024-05-09T19:45:34.605Z,15.40
2024-05-09T19:48:02.483Z,15.30
2024-05-09T19:50:37.326Z,15.20
2024-05-09T19:53:09.630Z,15.20
2024-05-09T19:55:36.749Z,15.10
2024-05-09T19:58:05.459Z,15.00
2024-05-09T20:00:39.684Z,14.90
2024-05-09T20:03:10.012Z,14.80
2024-05-09T20:05:37.892Z,14.70
2024-05-09T20:08:05.965Z,14.60
2024-05-09T20:10:35.210Z,14.50
2024-05-09T20:13:04.942Z,14.40
2024-05-09T20:15:34.566Z,14.40
2024-05-09T20:18:01.829Z,14.30
2024-05-09T20:20:37.029Z,14.20
2024-05-09T20:23:08.461Z,14.10
2024-05-09T20:25:35.283Z,14.10
2024-05-09T20:28:02.286Z,14.00
2024-05-09T20:30:32.689Z,13.90
2024-05-09T20:33:04.060Z,13.90
2024-05-09T20:35:32.523Z,13.80
2024-05-09T20:38:00.790Z,13.70
2024-05-09T20:40:32.706Z,13.70
2024-05-09T20:43:03.232Z,13.60
2024-05-09T20:45:30.183Z,13.50
2024-05-09T20:47:57.312Z,13.50
2024-05-09T20:50:35.351Z,13.40
2024-05-09T20:53:08.681Z,13.40
2024-05-09T20:55:35.590Z,13.30
2024-05-09T20:58:02.414Z,13.20
2024-05-09T21:00:35.549Z,13.20
2024-05-09T21:03:07.593Z,13.10
2024-05-09T21:05:35.177Z,13.10
2024-05-09T21:08:02.627Z,13.00
2024-05-09T21:10:32.570Z,13.00
2024-05-09T21:13:01.702Z,12.90
2024-05-09T21:15:29.184Z,12.80
2024-05-09T21:17:56.044Z,12.80
2024-05-09T21:20:28.824Z,12.70
2024-05-09T21:22:58.570Z,12.70
2024-05-09T21:25:25.728Z,12.70
2024-05-09T21:27:52.740Z,12.60
2024-05-09T21:30:31.397Z,12.60
2024-05-09T21:33:06.141Z,12.50
2024-05-09T21:35:33.055Z,12.50
2024-05-09T21:37:59.846Z,12.40
2024-05-09T21:40:33.777Z,12.40
2024-05-09T21:43:03.204Z,12.30
2024-05-09T21:45:30.166Z,12.30
2024-05-09T21:47:57.148Z,12.20
2024-05-09T21:50:31.857Z,12.20
2024-05-09T21:53:06.117Z,12.20
2024-05-09T21:55:33.008Z,12.20
2024-05-09T21:57:59.826Z,12.10
2024-05-09T22:00:34.589Z,12.10
2024-05-09T22:03:05.204Z,12.10
2024-05-09T22:05:32.400Z,12.00
2024-05-09T22:07:59.427Z,12.00
2024-05-09T22:10:31.161Z,12.00
2024-05-09T22:13:01.677Z,11.90
2024-05-09T22:15:28.722Z,11.90
2024-05-09T22:17:56.963Z,11.90
2024-05-09T22:20:33.106Z,11.80
2024-05-09T22:23:04.035Z,11.90
2024-05-09T22:25:32.160Z,11.80
2024-05-09T22:28:00.307Z,11.70
2024-05-09T22:30:35.407Z,11.70
2024-05-09T22:33:07.134Z,11.70
2024-05-09T22:35:34.199Z,11.70
2024-05-09T22:38:02.085Z,11.70
2024-05-09T22:40:38.539Z,11.60
2024-05-09T22:43:13.794Z,11.60
2024-05-09T22:45:40.918Z,11.60
2024-05-09T22:48:08.693Z,11.50
2024-05-09T22:50:35.980Z,11.50
2024-05-09T22:53:02.779Z,11.50
2024-05-09T22:55:29.909Z,11.50
2024-05-09T22:57:56.805Z,11.40
2024-05-09T23:02:53.438Z,11.40
2024-05-09T23:05:20.375Z,11.40
2024-05-09T23:07:47.205Z,11.40
2024-05-09T23:10:20.996Z,11.30
2024-05-09T23:12:54.099Z,11.30
2024-05-09T23:15:21.122Z,11.30
2024-05-09T23:17:48.113Z,11.30
2024-05-09T23:20:17.784Z,11.30
2024-05-09T23:22:48.249Z,11.20
2024-05-09T23:25:15.206Z,11.20
2024-05-09T23:27:42.123Z,11.20
2024-05-09T23:30:12.287Z,11.20
2024-05-09T23:32:39.540Z,11.10
2024-05-09T23:35:06.614Z,11.10
2024-05-09T23:37:33.418Z,11.10
2024-05-09T23:40:00.231Z,11.10
2024-05-09T23:42:27.068Z,11.10
2024-05-09T23:44:54.395Z,11.00
2024-05-09T23:47:21.289Z,11.00
2024-05-09T23:49:48.146Z,11.00
2024-05-09T23:52:15.062Z,11.00
2024-05-09T23:54:42.238Z,11.00
2024-05-09T23:57:09.027Z,10.90
2024-05-09T23:59:35.794Z,10.90
